Terminal Aerodrome Forecast
Issued by NWS New Orleans/Baton Rouge, LA

Home | Current Version | Previous Version | Text Only | Print | Product List | Glossary On
Versions: 1 2 3 4 5 6 7 8 9 10 11 12 13 14 15 16 17
000
FTUS44 KLIX 221720
TAFBTR
TAF
KBTR 221720Z 2218/2318 32005KT P6SM VCSH SCT025 BKN080
     FM230400 32006KT P6SM BKN010 BKN070
     FM230600 32006KT P6SM FEW008 SCT030=

USA.gov is the U.S. government's official web portal to all federal, state and local government web resources and services.